Time;durP1;ratioP1;P1;durP2;ratioP2;P2;SDS_P1;SDS_P2;PMS_P1;PMS_P2;Temp;Humidity;BMP_temperature;BMP_pressure;BME280_temperature;BME280_humidity;BME280_pressure;Samples;Min_cycle;Max_cycle;Signal;HPM_P1;HPM_P2
2022/12/03 00:01:59;;;;;;;37.17;19.20;;;;;;;;;;5089578;28;20050;-74
2022/12/03 00:04:25;;;;;;;35.97;19.10;;;;;;;;;;5095857;28;20095;-81
2022/12/03 00:06:51;;;;;;;34.92;17.75;;;;;;;;;;5086353;28;20028;-72
2022/12/03 00:09:18;;;;;;;36.92;17.73;;;;;;;;;;5098199;28;20460;-72
2022/12/03 00:11:44;;;;;;;36.13;17.42;;;;;;;;;;5091397;28;20020;-79
2022/12/03 00:14:10;;;;;;;40.40;20.83;;;;;;;;;;5090798;28;20024;-72
2022/12/03 00:16:36;;;;;;;33.50;17.30;;;;;;;;;;5090081;28;20059;-74
2022/12/03 00:19:02;;;;;;;35.13;18.23;;;;;;;;;;5107046;28;20342;-73
2022/12/03 00:21:28;;;;;;;36.20;16.83;;;;;;;;;;5087826;28;20028;-73
2022/12/03 00:23:54;;;;;;;33.05;17.10;;;;;;;;;;5091044;28;20086;-73
2022/12/03 00:26:20;;;;;;;32.50;17.20;;;;;;;;;;5084872;28;20029;-71
2022/12/03 00:28:46;;;;;;;30.58;16.73;;;;;;;;;;5091559;28;20107;-74
2022/12/03 00:31:12;;;;;;;29.45;16.48;;;;;;;;;;5088788;28;20183;-72
2022/12/03 00:33:38;;;;;;;26.80;16.00;;;;;;;;;;5092016;28;20028;-73
2022/12/03 00:36:04;;;;;;;25.40;14.77;;;;;;;;;;5088087;28;20029;-74
2022/12/03 00:38:30;;;;;;;25.50;14.27;;;;;;;;;;5089679;28;20032;-72
2022/12/03 00:40:56;;;;;;;27.00;14.93;;;;;;;;;;5091829;28;20044;-72
2022/12/03 00:43:23;;;;;;;27.00;14.73;;;;;;;;;;5090890;28;20028;-72
2022/12/03 00:45:49;;;;;;;26.05;13.85;;;;;;;;;;5074471;28;20028;-72
2022/12/03 00:48:15;;;;;;;22.10;13.07;;;;;;;;;;5084879;28;20111;-73
2022/12/03 00:50:41;;;;;;;21.00;12.90;;;;;;;;;;5087626;28;20063;-74
2022/12/03 00:53:07;;;;;;;24.98;13.23;;;;;;;;;;5087201;28;20032;-72
2022/12/03 00:55:33;;;;;;;22.10;13.23;;;;;;;;;;5091361;28;20032;-78
2022/12/03 00:57:59;;;;;;;19.27;11.60;;;;;;;;;;5088747;28;20039;-72
2022/12/03 01:00:25;;;;;;;22.73;12.18;;;;;;;;;;5082052;28;20044;-75
2022/12/03 01:02:51;;;;;;;19.35;12.20;;;;;;;;;;5090092;28;20476;-72
2022/12/03 01:05:18;;;;;;;17.60;10.45;;;;;;;;;;5089413;28;20040;-73
2022/12/03 01:07:44;;;;;;;19.80;10.88;;;;;;;;;;5084718;28;20029;-76
2022/12/03 01:10:11;;;;;;;21.52;11.55;;;;;;;;;;5091711;28;20073;-74
2022/12/03 01:12:37;;;;;;;15.65;10.07;;;;;;;;;;5091486;28;20039;-71
2022/12/03 01:15:03;;;;;;;17.27;10.43;;;;;;;;;;5090896;28;20484;-76
2022/12/03 01:17:29;;;;;;;15.10;11.00;;;;;;;;;;5084100;28;20036;-74
2022/12/03 01:19:56;;;;;;;16.13;9.70;;;;;;;;;;5089708;28;20410;-72
2022/12/03 01:22:22;;;;;;;18.20;10.77;;;;;;;;;;5088930;28;20066;-72
2022/12/03 01:24:48;;;;;;;19.95;9.68;;;;;;;;;;5086844;28;20036;-73
2022/12/03 01:27:17;;;;;;;14.32;10.35;;;;;;;;;;5091087;28;20084;-73
2022/12/03 01:29:43;;;;;;;14.57;9.30;;;;;;;;;;5096341;28;20056;-74
2022/12/03 01:32:17;;;;;;;19.05;10.57;;;;;;;;;;5085095;28;20036;-73
2022/12/03 01:34:47;;;;;;;18.92;10.15;;;;;;;;;;5095798;28;20041;-75
2022/12/03 01:37:13;;;;;;;18.08;10.70;;;;;;;;;;5095755;28;20043;-75
2022/12/03 01:39:40;;;;;;;16.77;10.52;;;;;;;;;;5088390;28;20035;-73
2022/12/03 01:42:07;;;;;;;24.92;11.25;;;;;;;;;;5084416;28;20484;-76
2022/12/03 01:44:34;;;;;;;17.85;10.85;;;;;;;;;;5088518;28;20028;-74
2022/12/03 01:47:04;;;;;;;15.77;10.32;;;;;;;;;;5088062;28;20028;-73
2022/12/03 01:49:33;;;;;;;18.38;10.38;;;;;;;;;;5093558;28;20028;-73
2022/12/03 01:51:59;;;;;;;18.50;10.57;;;;;;;;;;5087876;28;20105;-74
2022/12/03 01:54:27;;;;;;;20.10;11.50;;;;;;;;;;5085441;28;20039;-73
2022/12/03 01:56:54;;;;;;;14.88;10.18;;;;;;;;;;5091062;28;20096;-74
2022/12/03 01:59:21;;;;;;;18.85;11.02;;;;;;;;;;5103985;28;20028;-82
2022/12/03 02:01:47;;;;;;;17.58;10.63;;;;;;;;;;5090563;28;20123;-74
2022/12/03 02:04:14;;;;;;;18.33;10.65;;;;;;;;;;5089507;28;20024;-72
2022/12/03 02:06:41;;;;;;;20.92;11.68;;;;;;;;;;5085778;28;20016;-72
2022/12/03 02:09:09;;;;;;;15.23;9.80;;;;;;;;;;5085504;28;20035;-73
2022/12/03 02:11:36;;;;;;;20.42;11.63;;;;;;;;;;5087796;28;20433;-74
2022/12/03 02:14:05;;;;;;;17.95;11.48;;;;;;;;;;5089957;28;20020;-73
2022/12/03 02:16:31;;;;;;;17.40;10.93;;;;;;;;;;5086388;28;20138;-73
2022/12/03 02:18:58;;;;;;;19.13;12.25;;;;;;;;;;5107985;28;20043;-73
2022/12/03 02:21:27;;;;;;;19.58;12.30;;;;;;;;;;5098060;28;20028;-75
2022/12/03 02:23:56;;;;;;;20.05;12.27;;;;;;;;;;5088611;28;20097;-79
2022/12/03 02:26:22;;;;;;;20.10;12.32;;;;;;;;;;5084340;28;20399;-73
2022/12/03 02:28:48;;;;;;;19.65;12.65;;;;;;;;;;5101474;28;20028;-73
2022/12/03 02:31:14;;;;;;;20.33;12.73;;;;;;;;;;5088609;28;20489;-79
2022/12/03 02:33:40;;;;;;;22.27;13.52;;;;;;;;;;5087941;28;20688;-72
2022/12/03 02:36:07;;;;;;;20.25;12.45;;;;;;;;;;5086748;28;20437;-73
2022/12/03 02:38:34;;;;;;;22.67;12.43;;;;;;;;;;5079487;28;20039;-73
2022/12/03 02:41:03;;;;;;;18.35;12.02;;;;;;;;;;5086895;28;20114;-72
2022/12/03 02:43:29;;;;;;;21.92;13.13;;;;;;;;;;5084301;28;20093;-72
2022/12/03 02:45:57;;;;;;;25.25;14.93;;;;;;;;;;5088991;28;20067;-73
2022/12/03 02:48:25;;;;;;;23.50;13.48;;;;;;;;;;5085052;28;20024;-72
2022/12/03 02:50:58;;;;;;;23.45;13.75;;;;;;;;;;5089308;28;20031;-73
2022/12/03 02:53:26;;;;;;;21.67;13.77;;;;;;;;;;5090936;28;20099;-75
2022/12/03 02:55:52;;;;;;;22.83;13.57;;;;;;;;;;5097896;28;20028;-78
2022/12/03 02:58:19;;;;;;;22.10;12.65;;;;;;;;;;5080650;28;20477;-73
2022/12/03 03:00:45;;;;;;;22.67;13.40;;;;;;;;;;5086402;28;20107;-73
2022/12/03 03:03:11;;;;;;;22.45;13.95;;;;;;;;;;5090144;28;20020;-73
2022/12/03 03:05:39;;;;;;;21.17;12.35;;;;;;;;;;5086988;28;20028;-73
2022/12/03 03:08:07;;;;;;;22.38;13.48;;;;;;;;;;5079887;28;20109;-77
2022/12/03 03:10:34;;;;;;;22.08;12.88;;;;;;;;;;5086819;28;20724;-74
2022/12/03 03:13:02;;;;;;;25.08;14.43;;;;;;;;;;5087747;28;20036;-72
2022/12/03 03:15:28;;;;;;;26.00;14.15;;;;;;;;;;5088742;28;20067;-75
2022/12/03 03:17:54;;;;;;;30.20;17.63;;;;;;;;;;5087647;28;20051;-75
2022/12/03 03:20:20;;;;;;;26.30;16.10;;;;;;;;;;5087722;28;20043;-73
2022/12/03 03:22:46;;;;;;;22.42;12.93;;;;;;;;;;5085701;28;20480;-74
2022/12/03 03:25:14;;;;;;;25.35;13.60;;;;;;;;;;5087127;28;20024;-74
2022/12/03 03:27:41;;;;;;;21.27;13.60;;;;;;;;;;5081495;28;20402;-74
2022/12/03 03:30:08;;;;;;;19.50;13.18;;;;;;;;;;5087455;28;20125;-74
2022/12/03 03:32:34;;;;;;;22.92;13.65;;;;;;;;;;5082223;28;20381;-74
2022/12/03 03:35:00;;;;;;;23.27;13.27;;;;;;;;;;5086622;28;20067;-72
2022/12/03 03:37:27;;;;;;;24.45;14.15;;;;;;;;;;5085922;28;20453;-73
2022/12/03 03:39:53;;;;;;;20.20;12.45;;;;;;;;;;5082657;28;20044;-72
2022/12/03 03:42:19;;;;;;;22.95;13.55;;;;;;;;;;5080342;28;20044;-73
2022/12/03 03:44:46;;;;;;;22.55;13.18;;;;;;;;;;5093682;28;20085;-73
2022/12/03 03:47:13;;;;;;;18.42;12.05;;;;;;;;;;5092418;28;20093;-73
2022/12/03 03:49:39;;;;;;;25.15;13.77;;;;;;;;;;5097936;28;20024;-73
2022/12/03 03:52:08;;;;;;;23.65;12.85;;;;;;;;;;5091675;28;20381;-72
2022/12/03 03:54:34;;;;;;;22.42;13.23;;;;;;;;;;5089567;28;20619;-73
2022/12/03 03:57:01;;;;;;;24.30;14.48;;;;;;;;;;5086276;28;20469;-73
2022/12/03 03:59:28;;;;;;;21.88;12.95;;;;;;;;;;5088057;28;20035;-72
2022/12/03 04:01:54;;;;;;;22.73;13.63;;;;;;;;;;5093377;28;20043;-76
2022/12/03 04:04:21;;;;;;;24.80;13.15;;;;;;;;;;5085160;28;20024;-72
2022/12/03 04:06:47;;;;;;;20.95;12.68;;;;;;;;;;5088482;28;20028;-74
2022/12/03 04:09:13;;;;;;;22.38;13.00;;;;;;;;;;5094757;28;20028;-75
2022/12/03 04:14:24;;;;;;;18.45;13.00;;;;;;;;;;5088425;28;20107;-78
2022/12/03 04:16:50;;;;;;;21.27;12.45;;;;;;;;;;5091761;28;20073;-72
2022/12/03 04:19:16;;;;;;;21.38;12.55;;;;;;;;;;5106606;28;20464;-73
2022/12/03 04:24:27;;;;;;;20.92;12.15;;;;;;;;;;5092075;28;20039;-73
2022/12/03 04:29:38;;;;;;;20.55;12.55;;;;;;;;;;5089579;28;20062;-71
2022/12/03 04:37:34;;;;;;;26.05;12.98;;;;;;;;;;5090790;28;20435;-70
2022/12/03 04:40:00;;;;;;;18.77;13.00;;;;;;;;;;5094036;28;20036;-70
2022/12/03 04:42:26;;;;;;;20.45;12.70;;;;;;;;;;5086248;28;20033;-73
2022/12/03 04:44:52;;;;;;;20.73;12.52;;;;;;;;;;5084804;28;20032;-74
2022/12/03 04:47:19;;;;;;;20.70;12.60;;;;;;;;;;5088281;28;20452;-73
2022/12/03 04:49:48;;;;;;;23.17;13.75;;;;;;;;;;5102276;28;20040;-74
2022/12/03 04:52:15;;;;;;;22.95;13.50;;;;;;;;;;5079181;28;20020;-72
2022/12/03 04:54:42;;;;;;;24.88;13.52;;;;;;;;;;5070663;28;20492;-73
2022/12/03 04:57:08;;;;;;;19.08;12.23;;;;;;;;;;5080825;28;20036;-75
2022/12/03 04:59:35;;;;;;;23.95;13.90;;;;;;;;;;5107125;28;20490;-71
2022/12/03 05:02:01;;;;;;;21.40;12.93;;;;;;;;;;5092374;28;20059;-72
2022/12/03 05:04:27;;;;;;;23.25;14.20;;;;;;;;;;5081921;28;20035;-71
2022/12/03 05:06:53;;;;;;;20.58;12.57;;;;;;;;;;5088416;28;20055;-73
2022/12/03 05:09:19;;;;;;;21.23;13.38;;;;;;;;;;5092847;28;20034;-74
2022/12/03 05:11:45;;;;;;;24.20;13.75;;;;;;;;;;5088150;28;20048;-75
2022/12/03 05:14:11;;;;;;;21.25;12.82;;;;;;;;;;5090556;28;20495;-72
2022/12/03 05:16:37;;;;;;;21.20;13.10;;;;;;;;;;5090550;28;20443;-71
2022/12/03 05:19:04;;;;;;;19.75;12.38;;;;;;;;;;5080390;28;20051;-72
2022/12/03 05:21:30;;;;;;;21.65;13.00;;;;;;;;;;5089399;28;20040;-73
2022/12/03 05:23:56;;;;;;;21.70;13.68;;;;;;;;;;5086790;28;20032;-72
2022/12/03 05:26:22;;;;;;;23.05;13.40;;;;;;;;;;5082561;28;20103;-71
2022/12/03 05:28:49;;;;;;;20.92;13.00;;;;;;;;;;5089345;28;20036;-73
2022/12/03 05:31:15;;;;;;;21.98;14.00;;;;;;;;;;5081956;28;20077;-75
2022/12/03 05:33:41;;;;;;;21.65;13.57;;;;;;;;;;5083707;28;20107;-72
2022/12/03 05:36:07;;;;;;;26.08;14.55;;;;;;;;;;5087769;28;20029;-72
2022/12/03 05:38:33;;;;;;;25.92;14.38;;;;;;;;;;5090116;28;20020;-72
2022/12/03 05:41:00;;;;;;;23.75;13.95;;;;;;;;;;5090952;28;20077;-72
2022/12/03 05:43:26;;;;;;;24.52;13.55;;;;;;;;;;5090572;28;20012;-73
2022/12/03 05:45:52;;;;;;;22.45;12.88;;;;;;;;;;5077834;28;20034;-73
2022/12/03 05:48:18;;;;;;;21.85;14.25;;;;;;;;;;5085839;28;20107;-71
2022/12/03 05:50:45;;;;;;;20.63;12.70;;;;;;;;;;5090367;28;20051;-71
2022/12/03 05:53:12;;;;;;;24.48;13.80;;;;;;;;;;5086826;28;20063;-73
2022/12/03 05:55:38;;;;;;;21.83;13.35;;;;;;;;;;5089452;28;20509;-75
2022/12/03 05:58:04;;;;;;;24.88;13.25;;;;;;;;;;5072724;28;20031;-73
2022/12/03 06:00:32;;;;;;;24.25;14.60;;;;;;;;;;5085144;28;20074;-72
2022/12/03 06:02:58;;;;;;;23.17;14.30;;;;;;;;;;5082888;28;21528;-75
2022/12/03 06:05:25;;;;;;;21.98;13.65;;;;;;;;;;5086196;28;20039;-72
2022/12/03 06:07:51;;;;;;;21.40;13.65;;;;;;;;;;5080875;28;20420;-74
2022/12/03 06:10:20;;;;;;;23.20;13.07;;;;;;;;;;5091258;28;20418;-75
2022/12/03 06:12:46;;;;;;;19.65;13.07;;;;;;;;;;5067342;28;20310;-74
2022/12/03 06:15:13;;;;;;;21.77;12.82;;;;;;;;;;5086097;28;20477;-74
2022/12/03 06:17:39;;;;;;;24.33;14.52;;;;;;;;;;5097042;28;20082;-72
2022/12/03 06:20:05;;;;;;;24.33;14.30;;;;;;;;;;5080015;28;20040;-74
2022/12/03 06:22:31;;;;;;;24.63;15.40;;;;;;;;;;5082618;28;20108;-74
2022/12/03 06:24:58;;;;;;;25.63;15.55;;;;;;;;;;5084950;28;20039;-74
2022/12/03 06:27:24;;;;;;;25.90;15.23;;;;;;;;;;5089297;28;20032;-74
2022/12/03 06:29:50;;;;;;;24.10;13.52;;;;;;;;;;5082362;28;20128;-77
2022/12/03 06:32:16;;;;;;;28.10;14.57;;;;;;;;;;5073837;28;20021;-81
2022/12/03 06:34:42;;;;;;;23.17;13.65;;;;;;;;;;5086207;28;20036;-76
2022/12/03 06:37:08;;;;;;;23.13;13.13;;;;;;;;;;5086226;28;20039;-74
2022/12/03 06:39:34;;;;;;;22.30;12.88;;;;;;;;;;5086085;28;20039;-74
2022/12/03 06:42:00;;;;;;;22.65;14.32;;;;;;;;;;5087596;28;20107;-71
2022/12/03 06:44:26;;;;;;;23.75;13.38;;;;;;;;;;5088772;28;20039;-77
2022/12/03 06:46:52;;;;;;;22.13;12.73;;;;;;;;;;5084214;28;20044;-74
2022/12/03 06:49:18;;;;;;;22.30;12.20;;;;;;;;;;5083838;28;20050;-71
2022/12/03 06:51:45;;;;;;;21.85;12.88;;;;;;;;;;5076383;28;20035;-73
2022/12/03 06:54:11;;;;;;;22.88;13.70;;;;;;;;;;5083197;28;20034;-74
2022/12/03 06:56:37;;;;;;;22.17;13.55;;;;;;;;;;5101543;28;20044;-74
2022/12/03 06:59:03;;;;;;;22.65;13.02;;;;;;;;;;5086986;28;20016;-73
2022/12/03 07:01:29;;;;;;;23.25;13.52;;;;;;;;;;5087209;28;20121;-73
2022/12/03 07:03:55;;;;;;;25.50;14.07;;;;;;;;;;5080127;28;20043;-79
2022/12/03 07:06:21;;;;;;;21.75;12.82;;;;;;;;;;5082703;28;20028;-72
2022/12/03 07:08:47;;;;;;;24.33;14.07;;;;;;;;;;5089850;28;20055;-75
2022/12/03 07:11:31;;;;;;;21.50;13.13;;;;;;;;;;5087857;28;20032;-76
2022/12/03 07:14:01;;;;;;;22.80;13.35;;;;;;;;;;5084493;28;20501;-72
2022/12/03 07:16:28;;;;;;;26.75;13.32;;;;;;;;;;5089509;28;20518;-72
2022/12/03 07:18:54;;;;;;;23.60;13.23;;;;;;;;;;5088163;28;20028;-74
2022/12/03 07:21:20;;;;;;;25.05;13.77;;;;;;;;;;5111309;28;20386;-73
2022/12/03 07:23:46;;;;;;;25.08;14.13;;;;;;;;;;5094929;28;20496;-77
2022/12/03 07:43:05;;;;;;;29.02;14.00;;;;;;;;;;5060765;22;20827;-71
2022/12/03 07:48:22;;;;;;;28.40;14.20;;;;;;;;;;5136950;27;20422;-73
2022/12/03 07:50:48;;;;;;;24.73;13.63;;;;;;;;;;5130728;27;20035;-73
2022/12/03 07:53:14;;;;;;;24.92;14.32;;;;;;;;;;5140789;27;20473;-74
2022/12/03 07:55:40;;;;;;;26.20;13.95;;;;;;;;;;5139961;27;20035;-72
2022/12/03 07:58:07;;;;;;;25.67;13.82;;;;;;;;;;5138494;27;20035;-71
2022/12/03 08:06:18;;;;;;;24.77;14.75;;;;;;;;;;5016781;28;20102;-75
2022/12/03 08:08:46;;;;;;;24.30;13.68;;;;;;;;;;5025420;28;20029;-73
2022/12/03 08:11:13;;;;;;;23.30;13.30;;;;;;;;;;5037412;28;20155;-75
2022/12/03 08:13:39;;;;;;;22.05;13.85;;;;;;;;;;5024693;28;20052;-71
2022/12/03 08:16:14;;;;;;;23.63;14.02;;;;;;;;;;5027588;28;20691;-72
2022/12/03 08:18:40;;;;;;;22.25;12.98;;;;;;;;;;5026085;28;20053;-73
2022/12/03 08:21:09;;;;;;;25.45;15.73;;;;;;;;;;5027928;28;20136;-76
2022/12/03 08:23:35;;;;;;;49.55;26.52;;;;;;;;;;5027179;28;20040;-78
2022/12/03 08:26:01;;;;;;;26.58;13.85;;;;;;;;;;5022381;28;20034;-72
2022/12/03 08:28:28;;;;;;;27.13;14.77;;;;;;;;;;5026434;28;20037;-71
2022/12/03 08:31:02;;;;;;;27.98;15.00;;;;;;;;;;5017426;28;20041;-71
2022/12/03 08:33:32;;;;;;;20.95;13.50;;;;;;;;;;5023258;28;20061;-74
2022/12/03 08:35:58;;;;;;;25.92;14.95;;;;;;;;;;5022900;28;20085;-72
2022/12/03 08:38:25;;;;;;;27.38;15.43;;;;;;;;;;5021482;28;20040;-72
2022/12/03 08:40:51;;;;;;;26.35;15.40;;;;;;;;;;5029796;28;20029;-80
2022/12/03 08:43:27;;;;;;;24.50;15.15;;;;;;;;;;5024459;28;20219;-72
2022/12/03 08:45:54;;;;;;;24.95;14.77;;;;;;;;;;5020107;28;20064;-73
2022/12/03 08:48:26;;;;;;;26.70;13.35;;;;;;;;;;5026203;28;20103;-71
2022/12/03 08:50:54;;;;;;;24.30;13.82;;;;;;;;;;5022504;28;20026;-73
2022/12/03 08:53:34;;;;;;;27.30;15.40;;;;;;;;;;5019067;28;20037;-80
2022/12/03 08:56:19;;;;;;;27.10;15.32;;;;;;;;;;5004467;28;20034;-72
2022/12/03 08:59:05;;;;;;;25.75;15.75;;;;;;;;;;5017127;28;20065;-73
2022/12/03 09:01:33;;;;;;;27.85;15.57;;;;;;;;;;4978864;28;20042;-72
2022/12/03 09:04:14;;;;;;;31.83;18.13;;;;;;;;;;5002918;28;20524;-72
2022/12/03 09:06:40;;;;;;;26.75;15.07;;;;;;;;;;5023077;28;20490;-72
2022/12/03 09:09:06;;;;;;;27.95;15.43;;;;;;;;;;5011444;28;20033;-77
2022/12/03 09:11:32;;;;;;;25.55;15.48;;;;;;;;;;5005780;28;20115;-73
2022/12/03 09:13:58;;;;;;;31.67;15.68;;;;;;;;;;5009707;28;20057;-76
2022/12/03 09:16:24;;;;;;;25.95;14.90;;;;;;;;;;5007332;28;20033;-79
2022/12/03 09:18:50;;;;;;;24.98;14.13;;;;;;;;;;5006544;28;20068;-73
2022/12/03 09:21:16;;;;;;;25.80;15.48;;;;;;;;;;5028754;28;20033;-73
2022/12/03 09:23:42;;;;;;;27.90;15.45;;;;;;;;;;5014827;28;20042;-73
2022/12/03 09:26:08;;;;;;;27.50;16.02;;;;;;;;;;5010122;28;20030;-76
2022/12/03 09:28:34;;;;;;;25.65;14.35;;;;;;;;;;5010986;28;20022;-71
2022/12/03 09:31:00;;;;;;;24.90;14.48;;;;;;;;;;5010832;28;20037;-74
2022/12/03 09:33:29;;;;;;;27.67;15.45;;;;;;;;;;5010813;28;20034;-73
2022/12/03 09:35:55;;;;;;;29.83;15.30;;;;;;;;;;5007278;28;20124;-74
2022/12/03 09:38:21;;;;;;;27.05;15.40;;;;;;;;;;5009561;28;20022;-73
2022/12/03 09:40:48;;;;;;;25.90;14.93;;;;;;;;;;4995933;28;20030;-73
2022/12/03 09:43:14;;;;;;;31.40;15.40;;;;;;;;;;5009805;28;20080;-73
2022/12/03 09:45:40;;;;;;;26.45;15.48;;;;;;;;;;5008255;28;20026;-77
2022/12/03 09:48:06;;;;;;;24.00;14.75;;;;;;;;;;5011195;28;20604;-75
2022/12/03 09:50:32;;;;;;;27.27;15.63;;;;;;;;;;5021299;28;20026;-75
2022/12/03 09:53:00;;;;;;;26.30;15.60;;;;;;;;;;5017660;28;20026;-71
2022/12/03 09:55:27;;;;;;;27.77;15.73;;;;;;;;;;5002806;28;20025;-75
2022/12/03 09:57:54;;;;;;;31.23;15.68;;;;;;;;;;4998734;28;20421;-75
2022/12/03 10:00:22;;;;;;;28.50;16.27;;;;;;;;;;4997386;28;20446;-77
2022/12/03 10:02:49;;;;;;;27.60;15.52;;;;;;;;;;5008687;28;20030;-78
2022/12/03 10:05:15;;;;;;;28.08;16.45;;;;;;;;;;5014717;28;20041;-75
2022/12/03 10:07:41;;;;;;;32.83;16.40;;;;;;;;;;5025767;28;20041;-75
2022/12/03 10:10:15;;;;;;;24.67;15.02;;;;;;;;;;5024503;28;20033;-75
2022/12/03 10:12:41;;;;;;;30.17;16.80;;;;;;;;;;5021166;28;20072;-80
2022/12/03 10:15:09;;;;;;;33.97;17.88;;;;;;;;;;5036695;28;20029;-76
2022/12/03 10:17:35;;;;;;;33.72;19.52;;;;;;;;;;5021816;28;20418;-75
2022/12/03 10:20:01;;;;;;;32.45;17.88;;;;;;;;;;5017016;28;21008;-75
2022/12/03 10:22:27;;;;;;;28.98;16.52;;;;;;;;;;5005063;28;20080;-77
2022/12/03 10:25:08;;;;;;;33.08;16.33;;;;;;;;;;5011867;28;20037;-73
2022/12/03 10:27:34;;;;;;;31.25;16.17;;;;;;;;;;5029426;28;20122;-76
2022/12/03 10:30:01;;;;;;;26.80;14.68;;;;;;;;;;5027284;28;20029;-72
2022/12/03 10:32:39;;;;;;;33.03;17.42;;;;;;;;;;5024709;28;20040;-72
2022/12/03 10:35:07;;;;;;;35.70;18.00;;;;;;;;;;5024654;28;20468;-78
2022/12/03 10:37:33;;;;;;;46.38;26.55;;;;;;;;;;5030129;28;20033;-74
2022/12/03 10:40:07;;;;;;;28.00;16.33;;;;;;;;;;5028171;28;20021;-73
2022/12/03 10:42:34;;;;;;;32.80;16.98;;;;;;;;;;5026894;28;20022;-76
2022/12/03 10:45:14;;;;;;;26.13;15.50;;;;;;;;;;5013179;28;20540;-73
2022/12/03 10:47:40;;;;;;;28.13;16.45;;;;;;;;;;5012463;28;20074;-72
2022/12/03 10:50:13;;;;;;;27.95;16.13;;;;;;;;;;5025118;28;20033;-72
2022/12/03 10:52:40;;;;;;;26.75;15.00;;;;;;;;;;5027770;28;20060;-76
2022/12/03 10:55:06;;;;;;;31.92;16.10;;;;;;;;;;5028848;28;20022;-74
2022/12/03 10:57:32;;;;;;;29.23;16.45;;;;;;;;;;5021970;28;20478;-74
2022/12/03 10:59:58;;;;;;;28.45;16.23;;;;;;;;;;5024400;28;20103;-78
2022/12/03 11:02:24;;;;;;;28.98;16.48;;;;;;;;;;5027367;28;20037;-72
2022/12/03 11:04:51;;;;;;;28.67;15.82;;;;;;;;;;5023774;28;20071;-71
2022/12/03 11:07:18;;;;;;;28.20;16.38;;;;;;;;;;5027504;28;20061;-74
2022/12/03 11:09:45;;;;;;;31.65;15.73;;;;;;;;;;5024169;28;20559;-72
2022/12/03 11:12:23;;;;;;;30.10;14.82;;;;;;;;;;5028268;28;20036;-74
2022/12/03 11:14:49;;;;;;;29.75;17.25;;;;;;;;;;5012623;28;20418;-72
2022/12/03 11:17:24;;;;;;;26.42;16.48;;;;;;;;;;5022610;28;20037;-72
2022/12/03 11:19:50;;;;;;;28.48;16.83;;;;;;;;;;5010164;28;20037;-73
2022/12/03 11:22:17;;;;;;;28.92;16.55;;;;;;;;;;5021396;28;20129;-74
2022/12/03 11:24:43;;;;;;;30.42;17.30;;;;;;;;;;5022641;28;20040;-73
2022/12/03 11:27:09;;;;;;;29.92;16.23;;;;;;;;;;5025478;28;20038;-73
2022/12/03 11:29:44;;;;;;;25.83;15.65;;;;;;;;;;5027767;28;20037;-74
2022/12/03 11:32:10;;;;;;;32.13;15.00;;;;;;;;;;5023756;28;20084;-75
2022/12/03 11:34:36;;;;;;;29.80;16.73;;;;;;;;;;5027588;28;20032;-73
2022/12/03 11:37:11;;;;;;;27.95;15.88;;;;;;;;;;5023182;28;20104;-74
2022/12/03 11:39:49;;;;;;;29.02;16.20;;;;;;;;;;5019009;28;20339;-75
2022/12/03 11:42:24;;;;;;;26.60;15.68;;;;;;;;;;5021989;28;20048;-73
2022/12/03 11:45:02;;;;;;;27.73;16.45;;;;;;;;;;5018920;28;20259;-78
2022/12/03 11:47:30;;;;;;;32.90;17.35;;;;;;;;;;5017351;28;20064;-72
2022/12/03 11:49:56;;;;;;;31.23;16.23;;;;;;;;;;5026468;28;20460;-74
2022/12/03 11:52:24;;;;;;;27.30;15.35;;;;;;;;;;5024115;28;20236;-72
2022/12/03 11:54:53;;;;;;;27.95;16.15;;;;;;;;;;5028287;28;20500;-71
2022/12/03 11:57:25;;;;;;;27.20;16.45;;;;;;;;;;5025432;28;20037;-75
2022/12/03 11:59:58;;;;;;;29.13;15.95;;;;;;;;;;5024924;28;20037;-75
2022/12/03 12:02:25;;;;;;;28.05;16.63;;;;;;;;;;5024889;28;20030;-73
2022/12/03 12:04:51;;;;;;;28.65;15.65;;;;;;;;;;5027467;28;20056;-74
2022/12/03 12:07:33;;;;;;;31.45;19.08;;;;;;;;;;5025891;28;20046;-77
2022/12/03 12:09:59;;;;;;;49.22;26.58;;;;;;;;;;5016743;28;20049;-75
2022/12/03 12:12:28;;;;;;;49.55;27.42;;;;;;;;;;5027679;28;20029;-73
2022/12/03 12:14:54;;;;;;;33.83;19.38;;;;;;;;;;5027544;28;20381;-71
2022/12/03 12:17:30;;;;;;;28.70;17.25;;;;;;;;;;5022930;28;20626;-73
2022/12/03 12:20:11;;;;;;;29.67;16.30;;;;;;;;;;5027564;28;20119;-73
2022/12/03 12:22:38;;;;;;;29.13;15.75;;;;;;;;;;5026435;28;20041;-73
2022/12/03 12:25:05;;;;;;;30.05;16.98;;;;;;;;;;5026323;28;20041;-73
2022/12/03 12:27:34;;;;;;;27.73;16.00;;;;;;;;;;5025974;28;20072;-72
2022/12/03 12:30:02;;;;;;;27.85;17.02;;;;;;;;;;5028438;28;20036;-77
2022/12/03 12:32:29;;;;;;;29.05;16.10;;;;;;;;;;5019301;28;20080;-75
2022/12/03 12:35:14;;;;;;;31.75;16.13;;;;;;;;;;5025147;28;20420;-74
2022/12/03 12:37:52;;;;;;;29.90;17.88;;;;;;;;;;5031803;28;20068;-73
2022/12/03 12:40:19;;;;;;;32.90;17.38;;;;;;;;;;5026431;28;20025;-74
2022/12/03 12:42:52;;;;;;;32.28;18.15;;;;;;;;;;5021749;28;20437;-75
2022/12/03 12:45:18;;;;;;;32.33;16.30;;;;;;;;;;5020059;28;20037;-76
2022/12/03 12:47:49;;;;;;;31.45;17.33;;;;;;;;;;5031176;28;20044;-73
2022/12/03 12:50:16;;;;;;;31.40;17.40;;;;;;;;;;5027397;28;20037;-75
2022/12/03 12:52:50;;;;;;;33.42;18.25;;;;;;;;;;5030212;28;20465;-74
2022/12/03 12:55:16;;;;;;;34.63;16.60;;;;;;;;;;5022499;28;20296;-74
2022/12/03 12:57:43;;;;;;;34.50;17.90;;;;;;;;;;5031454;28;20033;-76
2022/12/03 13:00:20;;;;;;;31.55;17.70;;;;;;;;;;5040027;28;20111;-75
2022/12/03 13:02:50;;;;;;;32.10;16.52;;;;;;;;;;5032299;28;20168;-75
2022/12/03 13:05:17;;;;;;;30.60;17.15;;;;;;;;;;5017267;28;20489;-74
2022/12/03 13:07:43;;;;;;;33.80;17.00;;;;;;;;;;5036850;28;20030;-77
2022/12/03 13:10:21;;;;;;;29.73;16.88;;;;;;;;;;5033202;28;20120;-75
2022/12/03 13:12:47;;;;;;;34.75;17.55;;;;;;;;;;5031529;28;20114;-74
2022/12/03 13:15:34;;;;;;;32.33;17.17;;;;;;;;;;5030223;28;20022;-72
2022/12/03 13:18:00;;;;;;;33.25;16.85;;;;;;;;;;5030601;28;20418;-74
2022/12/03 13:20:27;;;;;;;30.27;17.15;;;;;;;;;;5031049;28;20057;-73
2022/12/03 13:22:53;;;;;;;26.67;16.23;;;;;;;;;;5030819;28;20041;-74
2022/12/03 13:25:32;;;;;;;28.10;16.95;;;;;;;;;;5030507;28;20036;-72
2022/12/03 13:27:58;;;;;;;29.20;16.35;;;;;;;;;;5018262;28;20535;-72
2022/12/03 13:30:25;;;;;;;29.13;15.85;;;;;;;;;;5028184;28;20037;-72
2022/12/03 13:32:51;;;;;;;31.88;17.17;;;;;;;;;;5029361;28;20386;-73
2022/12/03 13:35:26;;;;;;;31.65;17.23;;;;;;;;;;5030668;28;20414;-73
2022/12/03 13:37:52;;;;;;;31.58;17.95;;;;;;;;;;5031193;28;20101;-73
2022/12/03 13:40:33;;;;;;;35.45;17.52;;;;;;;;;;5029722;28;20040;-72
2022/12/03 13:43:00;;;;;;;31.27;17.00;;;;;;;;;;5029382;28;20485;-73
2022/12/03 13:45:30;;;;;;;29.38;17.45;;;;;;;;;;5026505;28;20127;-72
2022/12/03 13:48:00;;;;;;;30.55;16.48;;;;;;;;;;5030966;28;20045;-73
2022/12/03 13:50:37;;;;;;;29.92;16.52;;;;;;;;;;5026255;28;20018;-72
2022/12/03 13:53:05;;;;;;;29.55;16.52;;;;;;;;;;5030893;28;20029;-73
2022/12/03 13:55:32;;;;;;;31.05;17.05;;;;;;;;;;5029243;28;20425;-72
2022/12/03 13:57:58;;;;;;;30.15;17.52;;;;;;;;;;5028907;28;20033;-72
2022/12/03 14:00:24;;;;;;;31.73;16.52;;;;;;;;;;5028891;28;20132;-72
2022/12/03 14:02:50;;;;;;;28.88;16.50;;;;;;;;;;5028451;28;20044;-72
2022/12/03 14:05:16;;;;;;;29.95;16.98;;;;;;;;;;5022987;28;20050;-74
2022/12/03 14:07:42;;;;;;;32.25;17.17;;;;;;;;;;5012747;28;20033;-73
2022/12/03 14:10:09;;;;;;;31.10;17.50;;;;;;;;;;5030334;28;20424;-76
2022/12/03 14:12:35;;;;;;;24.55;15.55;;;;;;;;;;5028954;28;20390;-75
2022/12/03 14:15:03;;;;;;;29.33;17.17;;;;;;;;;;5029101;28;20040;-72
2022/12/03 14:17:29;;;;;;;31.77;16.73;;;;;;;;;;5020324;28;20037;-77
2022/12/03 14:19:56;;;;;;;27.70;16.23;;;;;;;;;;5020903;28;20042;-73
2022/12/03 14:22:24;;;;;;;32.75;17.55;;;;;;;;;;5021753;28;20033;-72
2022/12/03 14:24:51;;;;;;;29.02;15.93;;;;;;;;;;5021904;28;20038;-71
2022/12/03 14:27:17;;;;;;;31.75;16.35;;;;;;;;;;5010640;28;20042;-75
2022/12/03 14:29:43;;;;;;;32.83;17.58;;;;;;;;;;5026328;28;20077;-75
2022/12/03 14:32:09;;;;;;;29.50;17.10;;;;;;;;;;5010628;28;20040;-74
2022/12/03 14:34:35;;;;;;;37.40;18.77;;;;;;;;;;5026252;28;20029;-73
2022/12/03 14:37:01;;;;;;;30.73;16.27;;;;;;;;;;5029775;28;20163;-73
2022/12/03 14:39:27;;;;;;;29.63;16.50;;;;;;;;;;5029437;28;20033;-73
2022/12/03 14:42:12;;;;;;;33.63;17.23;;;;;;;;;;5029034;28;20124;-73
2022/12/03 14:44:38;;;;;;;31.65;18.35;;;;;;;;;;5028363;28;20037;-72
2022/12/03 14:47:04;;;;;;;31.88;17.45;;;;;;;;;;5024778;28;20033;-72
2022/12/03 14:49:30;;;;;;;32.88;18.08;;;;;;;;;;5018069;28;20065;-72
2022/12/03 14:51:56;;;;;;;31.88;18.63;;;;;;;;;;5017261;28;20505;-73
2022/12/03 14:54:22;;;;;;;35.05;18.15;;;;;;;;;;5029579;28;20025;-76
2022/12/03 14:56:48;;;;;;;32.80;18.33;;;;;;;;;;5028881;28;20052;-72
2022/12/03 14:59:14;;;;;;;31.60;16.05;;;;;;;;;;5008546;28;20466;-89